Time;durP1;ratioP1;P1;durP2;ratioP2;P2;SDS_P1;SDS_P2;PMS_P1;PMS_P2;Temp;Humidity;BMP_temperature;BMP_pressure;BME280_temperature;BME280_humidity;BME280_pressure;Samples;Min_cycle;Max_cycle;Signal;HPM_P1;HPM_P2
2022/08/03 00:02:18;;;;;;;22.50;5.80;;;17.90;99.90;;;;;;5017105;28;20050;-81
2022/08/03 00:04:45;;;;;;;;;;;17.80;99.90;;;;;;5035765;28;20053;-80
2022/08/03 00:07:13;;;;;;;26.20;6.20;;;17.80;99.90;;;;;;5035200;28;19925;-77
2022/08/03 00:09:41;;;;;;;;;;;17.80;99.90;;;;;;5034494;28;20052;-77
2022/08/03 00:12:09;;;;;;;21.45;6.18;;;17.70;99.90;;;;;;5034284;28;19920;-78
2022/08/03 00:14:36;;;;;;;;;;;17.70;99.90;;;;;;5034415;28;20060;-78
2022/08/03 00:17:04;;;;;;;23.20;6.47;;;17.70;99.90;;;;;;5034049;28;19920;-77
2022/08/03 00:19:32;;;;;;;30.17;6.43;;;17.60;99.90;;;;;;5034272;28;20057;-80
2022/08/03 00:21:59;;;;;;;32.47;6.60;;;17.60;99.90;;;;;;5032751;28;20380;-78
2022/08/03 00:24:27;;;;;;;31.95;6.45;;;17.60;99.90;;;;;;5034912;28;20057;-77
2022/08/03 00:26:55;;;;;;;22.63;6.00;;;17.50;99.90;;;;;;5034745;28;20049;-81
2022/08/03 00:29:22;;;;;;;31.00;6.35;;;17.50;99.90;;;;;;5032757;28;20464;-78
2022/08/03 00:31:50;;;;;;;29.10;5.88;;;17.40;99.90;;;;;;5034613;28;20065;-79
2022/08/03 00:34:27;;;;;;;29.10;6.38;;;17.40;99.90;;;;;;5033686;28;20237;-77
2022/08/03 00:37:15;;;;;;;29.92;7.13;;;17.40;99.90;;;;;;5034588;28;20052;-78
2022/08/03 00:39:45;;;;;;;25.45;6.82;;;17.40;99.90;;;;;;5034562;28;20445;-78
2022/08/03 00:42:12;;;;;;;29.23;6.03;;;17.30;99.90;;;;;;5032595;28;20050;-77
2022/08/03 00:44:42;;;;;;;29.73;6.88;;;17.30;99.90;;;;;;5034685;28;20041;-79
2022/08/03 00:47:11;;;;;;;26.75;6.88;;;17.30;99.90;;;;;;5033484;28;20041;-78
2022/08/03 00:49:39;;;;;;;;;;;17.20;99.90;;;;;;5033871;28;20045;-78
2022/08/03 00:52:09;;;;;;;32.03;6.78;;;17.30;99.90;;;;;;5034699;28;20374;-80
2022/08/03 00:54:37;;;;;;;31.15;7.03;;;17.20;99.90;;;;;;5033654;28;20049;-79
2022/08/03 00:57:05;;;;;;;29.25;7.20;;;17.20;99.90;;;;;;5034407;28;20056;-75
2022/08/03 00:59:33;;;;;;;;;;;17.30;99.90;;;;;;5034978;28;20046;-79
2022/08/03 01:02:01;;;;;;;;;;;17.30;99.90;;;;;;5032755;28;19928;-76
2022/08/03 01:04:28;;;;;;;27.08;6.43;;;17.30;99.90;;;;;;5034974;28;19921;-78
2022/08/03 01:07:27;;;;;;;23.13;6.15;;;17.30;99.90;;;;;;5033912;28;20052;-78
2022/08/03 01:10:33;;;;;;;28.05;6.82;;;17.40;99.90;;;;;;5034633;28;20065;-78
2022/08/03 01:13:19;;;;;;;27.80;6.97;;;17.50;99.90;;;;;;5006444;28;20488;-78
2022/08/03 01:16:27;;;;;;;29.27;7.00;;;17.50;99.90;;;;;;5036547;28;20064;-80
2022/08/03 01:19:31;;;;;;;28.08;7.50;;;17.60;99.90;;;;;;5038510;28;20057;-77
2022/08/03 01:22:29;;;;;;;31.73;8.10;;;17.60;99.90;;;;;;5036309;28;20477;-77
2022/08/03 01:25:13;;;;;;;33.78;8.40;;;17.60;99.90;;;;;;5020520;28;20388;-76
2022/08/03 01:27:59;;;;;;;30.48;9.68;;;17.60;99.90;;;;;;5019948;28;20460;-80
2022/08/03 01:30:33;;;;;;;31.80;9.88;;;17.70;99.90;;;;;;5037367;28;20046;-77
2022/08/03 01:33:04;;;;;;;28.77;10.93;;;17.70;99.90;;;;;;5036917;28;20050;-76
2022/08/03 01:35:56;;;;;;;31.02;10.60;;;17.70;99.90;;;;;;5036716;28;20057;-76
2022/08/03 01:38:30;;;;;;;34.97;10.95;;;17.70;99.90;;;;;;5038162;28;20053;-79
2022/08/03 01:41:06;;;;;;;36.35;11.45;;;17.70;99.90;;;;;;5035358;28;20515;-77
2022/08/03 01:43:35;;;;;;;29.25;11.20;;;17.70;99.90;;;;;;5020438;28;20468;-78
2022/08/03 01:46:25;;;;;;;37.58;11.45;;;17.70;99.90;;;;;;5037877;28;20045;-79
2022/08/03 01:48:53;;;;;;;29.13;11.50;;;17.80;99.90;;;;;;5036124;28;20069;-78
2022/08/03 01:51:22;;;;;;;32.67;12.25;;;17.70;99.90;;;;;;5036534;28;20468;-77
2022/08/03 01:54:12;;;;;;;30.98;11.93;;;17.70;99.90;;;;;;5005520;28;20053;-79
2022/08/03 01:56:41;;;;;;;33.78;12.05;;;17.70;99.90;;;;;;5037959;28;20468;-77
2022/08/03 01:59:11;;;;;;;29.70;12.20;;;17.70;99.90;;;;;;5037665;28;20068;-77
2022/08/03 02:01:40;;;;;;;32.78;11.70;;;17.70;99.90;;;;;;5036308;28;20045;-79
2022/08/03 02:04:29;;;;;;;28.13;11.75;;;17.60;99.90;;;;;;5036582;28;20060;-80
2022/08/03 02:06:58;;;;;;;28.35;11.40;;;17.60;99.90;;;;;;5036924;28;20395;-81
2022/08/03 02:09:30;;;;;;;31.67;10.65;;;16.70;99.90;;;;;;5018839;28;20052;-81
2022/08/03 02:12:01;;;;;;;32.10;10.45;;;17.60;99.90;;;;;;5037247;28;20464;-74
2022/08/03 02:14:30;;;;;;;33.35;9.98;;;17.60;99.90;;;;;;5036351;28;20065;-76
2022/08/03 02:16:59;;;;;;;26.35;9.85;;;17.60;99.90;;;;;;5036981;28;20046;-80
2022/08/03 02:19:29;;;;;;;32.50;9.85;;;17.70;99.90;;;;;;5036883;28;20132;-77
2022/08/03 02:22:05;;;;;;;29.77;9.02;;;17.70;99.90;;;;;;5035363;28;20064;-77
2022/08/03 02:24:32;;;;;;;26.63;9.05;;;17.80;99.90;;;;;;5036327;28;20049;-79
2022/08/03 02:27:03;;;;;;;27.98;9.18;;;17.80;99.90;;;;;;5036262;28;20053;-80
2022/08/03 02:29:33;;;;;;;28.45;8.40;;;17.90;99.90;;;;;;5035702;28;20060;-80
2022/08/03 02:32:15;;;;;;;30.23;7.85;;;18.00;99.90;;;;;;5037333;28;20053;-79
2022/08/03 02:34:47;;;;;;;27.25;7.38;;;18.10;99.90;;;;;;5035816;28;20054;-78
2022/08/03 02:37:18;;;;;;;21.30;6.55;;;18.10;99.90;;;;;;5036760;28;20048;-81
2022/08/03 02:39:48;;;;;;;23.45;6.65;;;18.20;99.90;;;;;;5036670;28;20049;-79
2022/08/03 02:42:20;;;;;;;24.85;6.15;;;18.20;99.90;;;;;;5035585;28;20052;-79
2022/08/03 02:44:49;;;;;;;25.52;5.75;;;18.30;99.90;;;;;;5036087;28;20052;-75
2022/08/03 02:47:20;;;;;;;25.65;5.68;;;18.30;99.90;;;;;;5019436;28;20046;-77
2022/08/03 02:49:49;;;;;;;27.40;5.50;;;18.30;99.90;;;;;;5034459;28;20056;-76
2022/08/03 02:52:22;;;;;;;18.70;5.13;;;18.40;99.90;;;;;;5036545;28;20041;-79
2022/08/03 02:54:53;;;;;;;23.52;5.30;;;18.60;99.90;;;;;;5035341;28;20058;-76
2022/08/03 02:57:23;;;;;;;22.85;5.10;;;18.40;99.90;;;;;;5019683;28;20499;-81
2022/08/03 02:59:52;;;;;;;23.05;4.85;;;18.50;99.90;;;;;;5035676;28;20364;-76
2022/08/03 03:02:20;;;;;;;17.80;4.82;;;18.50;99.90;;;;;;5035128;28;20045;-74
2022/08/03 03:04:51;;;;;;;19.67;4.55;;;18.50;99.90;;;;;;5036130;28;20045;-76
2022/08/03 03:07:40;;;;;;;20.92;4.65;;;18.50;99.90;;;;;;5035613;28;20041;-77
2022/08/03 03:10:23;;;;;;;20.23;4.68;;;18.50;99.90;;;;;;5035543;28;20523;-77
2022/08/03 03:12:54;;;;;;;24.42;5.00;;;18.50;99.90;;;;;;5035993;28;20519;-82
2022/08/03 03:15:26;;;;;;;21.48;4.65;;;18.60;99.90;;;;;;5034824;28;20057;-78
2022/08/03 03:17:55;;;;;;;23.17;4.90;;;18.60;99.90;;;;;;5035647;28;20056;-77
2022/08/03 03:20:24;;;;;;;18.73;4.50;;;18.60;99.90;;;;;;5035137;28;20045;-78
2022/08/03 03:23:00;;;;;;;22.08;4.80;;;18.60;99.90;;;;;;5034746;28;20487;-78
2022/08/03 03:25:31;;;;;;;22.20;5.30;;;18.60;99.90;;;;;;5035948;28;20461;-79
2022/08/03 03:28:00;;;;;;;30.15;5.68;;;18.60;99.90;;;;;;5034551;28;20046;-79
2022/08/03 03:30:29;;;;;;;18.85;4.90;;;18.60;99.90;;;;;;5034658;28;20069;-79
2022/08/03 03:32:58;;;;;;;22.42;5.22;;;18.60;99.90;;;;;;5035562;28;20486;-74
2022/08/03 03:35:26;;;;;;;19.42;5.20;;;18.70;99.90;;;;;;5034155;28;20494;-79
2022/08/03 03:37:55;;;;;;;29.42;5.53;;;18.70;99.90;;;;;;5035712;28;20068;-76
2022/08/03 03:40:23;;;;;;;24.38;5.57;;;18.70;99.90;;;;;;5035535;28;20030;-79
2022/08/03 03:42:51;;;;;;;20.05;5.28;;;18.70;99.90;;;;;;5034322;28;20045;-77
2022/08/03 03:45:20;;;;;;;17.67;5.30;;;18.70;99.90;;;;;;5034667;28;20041;-80
2022/08/03 03:47:48;;;;;;;24.30;5.97;;;18.70;99.90;;;;;;5033840;28;20124;-77
2022/08/03 03:50:16;;;;;;;;;;;18.70;99.90;;;;;;5035923;28;20045;-77
2022/08/03 03:52:44;;;;;;;;;;;18.70;99.90;;;;;;5035603;28;19925;-77
2022/08/03 03:55:15;;;;;;;16.60;5.30;;;18.70;99.90;;;;;;5016849;28;20328;-75
2022/08/03 03:57:43;;;;;;;27.60;5.50;;;18.70;99.90;;;;;;5035445;28;20056;-79
2022/08/03 04:00:13;;;;;;;22.15;5.63;;;18.70;99.90;;;;;;5035362;28;20472;-81
2022/08/03 04:02:40;;;;;;;18.88;5.57;;;18.50;99.90;;;;;;5016918;28;20056;-75
2022/08/03 04:11:18;;;;;;;27.55;5.95;;;18.70;99.90;;;;;;5034956;28;20050;-77
2022/08/03 04:14:23;;;;;;;22.35;7.00;;;18.70;99.90;;;;;;5035129;28;20043;-76
2022/08/03 04:17:07;;;;;;;19.58;6.80;;;18.60;99.90;;;;;;5034958;28;20065;-79
2022/08/03 04:19:46;;;;;;;24.60;7.43;;;18.60;99.90;;;;;;5034023;28;20381;-77
2022/08/03 04:22:18;;;;;;;23.45;7.55;;;18.60;99.90;;;;;;5032649;28;20045;-78
2022/08/03 04:24:49;;;;;;;22.20;7.63;;;18.60;99.90;;;;;;5034851;28;20049;-77
2022/08/03 04:27:23;;;;;;;21.23;8.15;;;18.60;99.90;;;;;;5034919;28;20052;-78
2022/08/03 04:29:53;;;;;;;20.48;7.50;;;18.60;99.90;;;;;;5033414;28;20037;-79
2022/08/03 04:32:24;;;;;;;18.88;7.60;;;18.70;99.90;;;;;;5033857;28;20388;-78
2022/08/03 04:34:52;;;;;;;21.45;7.47;;;18.70;99.90;;;;;;5033300;28;20050;-78
2022/08/03 04:37:34;;;;;;;25.80;8.40;;;18.70;99.90;;;;;;5034093;28;20064;-77
2022/08/03 04:40:05;;;;;;;20.80;7.53;;;18.70;99.90;;;;;;5034079;28;20049;-78
2022/08/03 04:42:35;;;;;;;20.67;7.95;;;18.80;99.90;;;;;;5032551;28;20060;-76
2022/08/03 04:45:04;;;;;;;23.50;8.27;;;18.80;99.90;;;;;;5035285;28;20048;-75
2022/08/03 04:47:32;;;;;;;23.52;7.85;;;18.80;99.90;;;;;;5035722;28;20468;-77
2022/08/03 04:50:02;;;;;;;20.83;7.97;;;18.90;99.90;;;;;;5038200;28;20046;-79
2022/08/03 04:52:30;;;;;;;24.10;9.00;;;18.80;99.90;;;;;;5037704;28;20053;-80
2022/08/03 04:54:58;;;;;;;19.75;8.52;;;18.90;99.90;;;;;;5036463;28;20484;-78
2022/08/03 04:57:26;;;;;;;21.85;9.48;;;18.90;99.90;;;;;;5037562;28;20057;-75
2022/08/03 04:59:55;;;;;;;22.83;10.27;;;18.90;99.90;;;;;;5038476;28;20048;-78
2022/08/03 05:02:30;;;;;;;21.02;9.73;;;18.90;99.90;;;;;;5036574;28;20052;-76
2022/08/03 05:04:58;;;;;;;;;;;18.90;99.90;;;;;;5039099;28;20045;-80
2022/08/03 05:07:26;;;;;;;19.98;9.90;;;18.90;99.90;;;;;;5037917;28;19924;-78
2022/08/03 05:10:08;;;;;;;19.52;9.85;;;19.00;99.90;;;;;;5038531;28;20112;-80
2022/08/03 05:12:46;;;;;;;22.05;9.95;;;19.00;99.90;;;;;;5037453;28;20067;-76
2022/08/03 05:15:14;;;;;;;21.15;8.63;;;19.00;99.90;;;;;;5036627;28;20060;-80
2022/08/03 05:17:42;;;;;;;;;;;19.00;99.90;;;;;;5037767;28;20068;-80
2022/08/03 05:20:10;;;;;;;21.27;8.30;;;19.10;99.90;;;;;;5038020;28;19921;-76
2022/08/03 05:22:38;;;;;;;24.23;8.43;;;19.10;99.90;;;;;;5036287;28;20046;-79
2022/08/03 05:25:06;;;;;;;27.52;7.65;;;19.10;99.90;;;;;;5037637;28;20049;-78
2022/08/03 05:27:34;;;;;;;22.88;7.53;;;19.10;99.90;;;;;;5036314;28;20049;-79
2022/08/03 05:30:05;;;;;;;20.58;6.97;;;19.20;99.90;;;;;;5038292;28;20479;-75
2022/08/03 05:32:53;;;;;;;26.63;6.95;;;19.40;99.90;;;;;;5036943;28;20483;-76
2022/08/03 05:35:21;;;;;;;28.85;7.18;;;19.20;99.90;;;;;;5019767;28;20049;-76
2022/08/03 05:38:08;;;;;;;26.70;6.72;;;19.30;99.90;;;;;;5037904;28;20041;-76
2022/08/03 05:40:37;;;;;;;;;;;19.30;99.90;;;;;;5037342;28;20053;-77
2022/08/03 05:43:05;;;;;;;20.52;6.40;;;19.40;99.90;;;;;;5036834;28;19921;-79
2022/08/03 05:45:35;;;;;;;25.00;7.20;;;19.40;99.90;;;;;;5037950;28;20049;-78
2022/08/03 05:48:04;;;;;;;20.88;7.22;;;19.40;99.90;;;;;;5035474;28;20060;-80
2022/08/03 05:50:32;;;;;;;22.92;7.57;;;19.50;99.90;;;;;;5036427;28;20053;-76
2022/08/03 05:53:00;;;;;;;19.08;8.27;;;19.60;99.90;;;;;;5050668;28;20387;-78
2022/08/03 05:55:27;;;;;;;21.15;7.97;;;19.60;99.90;;;;;;5052630;28;20486;-80
2022/08/03 05:57:55;;;;;;;24.92;8.63;;;19.70;99.90;;;;;;5054646;28;20040;-77
2022/08/03 06:00:24;;;;;;;26.27;8.55;;;19.80;99.90;;;;;;5056071;28;20049;-78
2022/08/03 06:02:52;;;;;;;22.38;7.80;;;19.90;99.90;;;;;;5056709;28;20060;-76
2022/08/03 06:05:22;;;;;;;19.42;7.78;;;19.90;99.90;;;;;;5056768;28;20048;-77
2022/08/03 06:07:50;;;;;;;23.55;8.18;;;20.00;99.90;;;;;;5039491;28;20379;-74
2022/08/03 06:10:17;;;;;;;20.40;8.13;;;20.10;99.90;;;;;;5056916;28;20056;-76
2022/08/03 06:13:04;;;;;;;21.35;7.75;;;20.10;99.90;;;;;;5056438;28;20359;-78
2022/08/03 06:15:34;;;;;;;21.23;7.35;;;20.20;99.90;;;;;;5055833;28;20056;-78
2022/08/03 06:18:02;;;;;;;19.20;6.45;;;20.30;99.90;;;;;;5056930;28;20045;-75
2022/08/03 06:20:29;;;;;;;23.27;7.10;;;20.40;99.90;;;;;;5057061;28;20057;-74
2022/08/03 06:22:59;;;;;;;18.67;6.38;;;20.50;99.90;;;;;;5056014;28;20467;-75
2022/08/03 06:25:28;;;;;;;20.73;5.88;;;20.40;99.90;;;;;;5056521;28;20072;-78
2022/08/03 06:27:58;;;;;;;18.25;5.65;;;20.60;99.90;;;;;;5054981;28;20037;-71
2022/08/03 06:30:26;;;;;;;17.35;5.18;;;20.70;99.90;;;;;;5055980;28;20049;-71
2022/08/03 06:32:54;;;;;;;16.58;4.95;;;20.70;99.90;;;;;;5056688;28;20060;-70
2022/08/03 06:35:21;;;;;;;16.25;5.05;;;20.70;99.90;;;;;;5055722;28;20467;-72
2022/08/03 06:37:51;;;;;;;19.02;5.03;;;20.80;99.90;;;;;;5055759;28;20052;-78
2022/08/03 06:40:30;;;;;;;17.27;4.75;;;20.90;99.90;;;;;;5056528;28;20049;-77
2022/08/03 06:43:00;;;;;;;12.52;4.35;;;20.90;99.90;;;;;;5055162;28;20044;-79
2022/08/03 06:45:28;;;;;;;12.77;4.15;;;20.90;99.90;;;;;;5055778;28;20052;-75
2022/08/03 06:48:04;;;;;;;16.58;3.97;;;20.90;99.90;;;;;;5054419;28;20048;-76
2022/08/03 06:50:33;;;;;;;15.20;4.18;;;21.00;99.90;;;;;;5055525;28;20367;-76
2022/08/03 06:53:03;;;;;;;13.52;3.95;;;21.00;99.90;;;;;;5055703;28;20067;-75
2022/08/03 06:55:31;;;;;;;11.98;3.38;;;21.00;99.90;;;;;;5036424;28;20468;-78
2022/08/03 06:57:59;;;;;;;9.85;3.10;;;21.10;99.90;;;;;;5002155;28;20045;-77
2022/08/03 07:00:30;;;;;;;11.65;3.47;;;21.10;99.80;;;;;;5036106;28;20053;-77
2022/08/03 07:02:57;;;;;;;12.40;3.30;;;21.10;99.70;;;;;;5035334;28;20049;-75
2022/08/03 07:05:25;;;;;;;10.15;3.50;;;21.10;99.60;;;;;;5036166;28;20049;-75
2022/08/03 07:07:58;;;;;;;10.27;2.90;;;21.20;99.90;;;;;;5035557;28;20053;-74
2022/08/03 07:10:26;;;;;;;9.80;3.05;;;21.20;99.20;;;;;;5034780;28;20046;-76
2022/08/03 07:12:54;;;;;;;5.90;3.03;;;21.30;99.20;;;;;;5007523;28;20477;-78
2022/08/03 07:15:24;;;;;;;8.13;2.97;;;22.40;99.40;;;;;;5023800;28;20037;-76
2022/08/03 07:18:12;;;;;;;8.65;2.80;;;21.40;98.80;;;;;;5009498;28;20045;-75
2022/08/03 07:20:40;;;;;;;11.20;3.25;;;21.40;99.00;;;;;;4993115;28;20061;-79
2022/08/03 07:23:10;;;;;;;7.75;2.70;;;21.50;98.80;;;;;;5023735;28;20041;-78
2022/08/03 07:25:46;;;;;;;;;;;21.50;98.50;;;;;;5009476;28;20034;-80
2022/08/03 07:28:16;;;;;;;4.53;2.47;;;21.60;98.20;;;;;;5024106;28;19921;-78
2022/08/03 07:30:44;;;;;;;7.53;2.80;;;21.50;98.30;;;;;;5024567;28;20049;-79
2022/08/03 07:33:12;;;;;;;5.00;2.78;;;21.60;98.40;;;;;;5012832;28;20052;-80
2022/08/03 07:35:47;;;;;;;5.10;2.38;;;21.60;98.10;;;;;;5017528;28;20069;-79
2022/08/03 07:38:15;;;;;;;4.13;2.40;;;21.80;98.20;;;;;;5036181;28;20368;-78
2022/08/03 07:40:42;;;;;;;7.30;3.00;;;21.90;97.40;;;;;;5035491;28;20453;-76
2022/08/03 07:43:13;;;;;;;4.38;2.60;;;22.00;97.40;;;;;;5019082;28;20045;-72
2022/08/03 07:45:43;;;;;;;4.28;2.55;;;22.10;97.10;;;;;;5035447;28;20041;-78
2022/08/03 07:48:12;;;;;;;4.90;2.40;;;22.20;96.80;;;;;;5017500;28;20480;-78
2022/08/03 07:50:40;;;;;;;;;;;22.20;96.80;;;;;;5018416;28;20384;-76
2022/08/03 07:53:07;;;;;;;7.45;2.25;;;22.40;96.50;;;;;;5035644;28;19921;-75
2022/08/03 07:55:35;;;;;;;5.32;2.13;;;22.40;96.50;;;;;;5034146;28;20052;-77
2022/08/03 07:58:17;;;;;;;7.03;2.20;;;22.30;96.20;;;;;;5017831;28;20116;-75
2022/08/03 08:00:52;;;;;;;4.88;1.98;;;22.30;96.30;;;;;;5034027;28;20468;-77
2022/08/03 08:03:22;;;;;;;5.97;1.80;;;22.30;96.30;;;;;;5018405;28;20444;-73
2022/08/03 08:05:50;;;;;;;4.13;1.60;;;22.30;96.20;;;;;;5035357;28;20117;-75
2022/08/03 08:08:17;;;;;;;5.82;1.70;;;22.40;96.10;;;;;;5034049;28;20053;-71
2022/08/03 08:10:46;;;;;;;3.78;1.35;;;22.60;95.90;;;;;;5034957;28;20099;-72
2022/08/03 08:13:25;;;;;;;3.20;1.40;;;22.70;95.90;;;;;;5035698;28;20057;-72
2022/08/03 08:15:52;;;;;;;4.40;1.30;;;22.90;95.10;;;;;;5016791;28;20064;-71
2022/08/03 08:18:20;;;;;;;3.95;1.17;;;22.90;94.70;;;;;;5035008;28;20499;-71
2022/08/03 08:20:48;;;;;;;5.53;1.13;;;22.90;94.70;;;;;;5016627;28;20049;-72
2022/08/03 08:23:21;;;;;;;3.42;0.98;;;23.00;94.60;;;;;;5017719;28;20051;-70
2022/08/03 08:26:09;;;;;;;3.40;0.90;;;23.20;94.30;;;;;;5020522;28;20041;-74
2022/08/03 08:28:37;;;;;;;;;;;23.20;93.60;;;;;;5034254;28;20057;-71
2022/08/03 08:31:05;;;;;;;3.95;1.23;;;23.20;93.70;;;;;;5035131;28;19928;-70
2022/08/03 08:33:33;;;;;;;3.47;1.10;;;23.30;94.00;;;;;;5034703;28;20053;-71
2022/08/03 08:36:21;;;;;;;3.08;1.05;;;23.40;93.80;;;;;;5033634;28;20464;-70
2022/08/03 08:38:49;;;;;;;2.80;1.00;;;23.50;93.70;;;;;;5034625;28;20056;-69
2022/08/03 08:41:16;;;;;;;4.45;1.00;;;23.60;93.50;;;;;;5033635;28;20049;-71
2022/08/03 08:43:44;;;;;;;3.60;0.95;;;23.70;93.20;;;;;;5017622;28;20049;-71
2022/08/03 08:46:13;;;;;;;4.22;1.38;;;23.80;92.90;;;;;;5034587;28;20049;-72
2022/08/03 08:48:52;;;;;;;1.95;1.20;;;23.90;92.70;;;;;;5033565;28;20041;-70
2022/08/03 08:51:21;;;;;;;3.38;1.38;;;23.80;92.50;;;;;;5017760;28;20083;-74
2022/08/03 08:53:52;;;;;;;4.85;1.00;;;23.70;92.50;;;;;;5017318;28;20480;-71
2022/08/03 08:56:24;;;;;;;2.67;0.93;;;23.70;92.70;;;;;;5033635;28;20056;-69
2022/08/03 08:58:56;;;;;;;2.72;1.10;;;23.70;92.70;;;;;;5017469;28;20046;-71
2022/08/03 09:01:24;;;;;;;3.70;1.20;;;23.60;92.60;;;;;;5029188;28;20045;-69
2022/08/03 09:03:53;;;;;;;2.15;0.90;;;23.50;92.60;;;;;;5014825;28;20042;-70
2022/08/03 09:06:21;;;;;;;2.70;1.00;;;23.20;92.80;;;;;;5014633;28;20057;-72
2022/08/03 09:08:49;;;;;;;2.65;0.90;;;23.10;93.10;;;;;;5013608;28;20484;-72
2022/08/03 09:11:22;;;;;;;2.50;1.33;;;23.20;93.30;;;;;;5014808;28;20057;-72
2022/08/03 09:14:10;;;;;;;3.38;1.23;;;23.30;93.30;;;;;;5013763;28;20049;-73
2022/08/03 09:17:00;;;;;;;3.95;1.27;;;23.50;93.10;;;;;;5014776;28;20048;-72
2022/08/03 09:19:29;;;;;;;4.00;1.50;;;23.70;92.80;;;;;;5014715;28;20050;-71
2022/08/03 09:22:17;;;;;;;5.72;1.55;;;23.70;92.60;;;;;;4996265;28;20078;-70
2022/08/03 09:24:59;;;;;;;6.55;1.45;;;23.60;92.40;;;;;;5014525;28;20491;-73
2022/08/03 09:27:47;;;;;;;4.03;0.98;;;23.70;92.70;;;;;;4996320;28;20187;-71
2022/08/03 09:30:17;;;;;;;5.72;1.27;;;23.80;92.60;;;;;;5014401;28;20046;-71
2022/08/03 09:33:07;;;;;;;5.72;1.27;;;23.90;92.40;;;;;;5015778;28;20045;-71
2022/08/03 09:35:43;;;;;;;5.38;1.25;;;24.00;91.90;;;;;;5017118;28;20131;-70
2022/08/03 09:38:26;;;;;;;3.80;1.00;;;23.90;92.20;;;;;;5003307;28;20396;-75
2022/08/03 09:40:55;;;;;;;3.15;1.17;;;23.90;92.40;;;;;;5016893;28;20057;-71
2022/08/03 09:43:28;;;;;;;5.82;1.00;;;23.80;92.30;;;;;;5018481;28;20138;-73
2022/08/03 09:46:04;;;;;;;2.42;0.90;;;23.90;92.30;;;;;;5018310;28;20045;-71
2022/08/03 09:48:36;;;;;;;4.07;1.13;;;24.10;92.00;;;;;;5016909;28;20052;-73
2022/08/03 09:51:04;;;;;;;6.10;1.10;;;24.20;92.00;;;;;;5000761;28;20050;-72
2022/08/03 09:53:51;;;;;;;4.32;1.40;;;24.40;91.70;;;;;;5003524;28;20368;-73
2022/08/03 09:56:46;;;;;;;7.22;1.45;;;24.40;91.50;;;;;;5036720;28;20045;-73
2022/08/03 09:59:28;;;;;;;7.25;1.60;;;24.70;90.70;;;;;;5037463;28;20056;-77
2022/08/03 10:01:57;;;;;;;7.72;1.40;;;24.90;90.50;;;;;;5035973;28;20053;-76
2022/08/03 10:04:25;;;;;;;7.40;1.50;;;25.00;90.50;;;;;;5037734;28;20046;-76
2022/08/03 10:07:09;;;;;;;7.45;1.75;;;25.00;90.00;;;;;;5036152;28;20049;-78
2022/08/03 10:09:53;;;;;;;4.63;1.38;;;25.10;89.80;;;;;;5054163;28;20049;-77
2022/08/03 10:12:24;;;;;;;7.68;1.50;;;25.20;89.00;;;;;;5056365;28;20055;-74
2022/08/03 10:14:52;;;;;;;4.72;1.23;;;25.20;90.00;;;;;;5056326;28;20041;-74
2022/08/03 10:17:22;;;;;;;9.60;1.55;;;25.40;89.90;;;;;;5057116;28;20467;-75
2022/08/03 10:19:49;;;;;;;3.88;1.15;;;25.40;89.20;;;;;;5057064;28;20060;-74
2022/08/03 10:22:30;;;;;;;4.03;1.35;;;25.40;89.20;;;;;;5054993;28;20059;-74
2022/08/03 10:25:11;;;;;;;9.32;1.48;;;25.40;89.40;;;;;;5056100;28;20049;-76
2022/08/03 10:27:41;;;;;;;4.00;1.20;;;25.40;88.60;;;;;;5055270;28;20045;-76
2022/08/03 10:30:10;;;;;;;4.25;1.10;;;25.40;89.20;;;;;;5055919;28;20033;-75
2022/08/03 10:32:47;;;;;;;7.43;1.00;;;25.40;88.50;;;;;;5056965;28;20048;-76
2022/08/03 10:35:18;;;;;;;5.35;1.40;;;25.40;88.80;;;;;;5055916;28;20056;-81
2022/08/03 10:38:02;;;;;;;3.90;1.20;;;25.40;88.70;;;;;;5057243;28;20049;-77
2022/08/03 10:40:34;;;;;;;4.88;1.20;;;25.30;88.30;;;;;;5056730;28;20052;-72
2022/08/03 10:43:27;;;;;;;6.35;1.50;;;25.40;88.70;;;;;;5056246;28;20037;-72
2022/08/03 10:45:55;;;;;;;4.95;1.27;;;25.60;88.40;;;;;;5055317;28;20072;-72
2022/08/03 10:48:24;;;;;;;7.72;1.50;;;25.90;87.70;;;;;;5055327;28;20040;-73
2022/08/03 10:50:52;;;;;;;11.07;2.10;;;26.20;87.00;;;;;;5056400;28;20052;-72
2022/08/03 10:53:41;;;;;;;11.70;1.70;;;26.40;86.50;;;;;;5055463;28;20452;-73
2022/08/03 10:59:45;;;;;;;8.63;1.75;;;26.70;84.90;;;;;;5055501;28;20060;-75
2022/08/03 11:02:14;;;;;;;10.55;1.67;;;26.50;84.80;;;;;;5054590;28;20467;-75
2022/08/03 11:04:44;;;;;;;8.25;1.70;;;26.20;85.60;;;;;;5055808;28;20060;-72
2022/08/03 11:07:17;;;;;;;8.73;1.83;;;26.00;86.10;;;;;;5056531;28;20045;-77
2022/08/03 11:09:48;;;;;;;10.88;1.80;;;26.10;87.00;;;;;;5054266;28;20045;-79
2022/08/03 11:12:30;;;;;;;8.05;1.73;;;25.50;87.40;;;;;;5055083;28;20053;-77
2022/08/03 11:15:06;;;;;;;9.80;1.90;;;25.40;87.60;;;;;;5055279;28;20049;-76
2022/08/03 11:17:52;;;;;;;14.25;1.83;;;25.40;87.70;;;;;;5055388;28;20045;-76
2022/08/03 11:20:45;;;;;;;11.25;1.95;;;25.30;87.90;;;;;;5055135;28;20448;-77
2022/08/03 11:23:40;;;;;;;11.52;1.73;;;25.40;87.60;;;;;;5055093;28;20041;-80
2022/08/03 11:26:31;;;;;;;7.82;2.10;;;25.50;87.30;;;;;;5055248;28;20033;-80
2022/08/03 11:29:52;;;;;;;5.65;1.90;;;25.50;87.60;;;;;;5053453;28;20052;-73
2022/08/03 11:32:40;;;;;;;6.53;1.90;;;25.60;87.50;;;;;;4974978;28;20386;-74
2022/08/03 11:35:20;;;;;;;8.98;1.60;;;25.70;87.10;;;;;;4969141;28;20054;-74
2022/08/03 11:37:57;;;;;;;6.00;1.90;;;25.80;87.10;;;;;;5036645;28;20061;-71
2022/08/03 11:40:49;;;;;;;9.82;2.03;;;25.80;86.70;;;;;;5054950;28;20044;-78
2022/08/03 11:44:00;;;;;;;9.60;1.90;;;25.80;86.70;;;;;;5054239;28;20048;-82
2022/08/03 11:46:37;;;;;;;8.35;2.00;;;25.80;87.70;;;;;;5054539;28;20040;-78
2022/08/03 11:49:08;;;;;;;14.05;2.92;;;25.90;86.20;;;;;;5054473;28;20048;-76
2022/08/03 11:51:39;;;;;;;9.07;2.25;;;26.00;86.40;;;;;;5037649;28;20472;-78
2022/08/03 11:54:10;;;;;;;9.00;2.08;;;26.10;85.80;;;;;;5051162;28;20057;-73
2022/08/03 11:56:58;;;;;;;10.27;1.75;;;25.40;85.30;;;;;;5017481;28;20057;-79
2022/08/03 12:00:00;;;;;;;6.05;1.60;;;26.30;85.20;;;;;;5008209;28;20054;-75
2022/08/03 12:02:27;;;;;;;10.27;1.83;;;26.30;85.50;;;;;;5033753;28;20045;-75
2022/08/03 12:04:58;;;;;;;7.97;1.70;;;26.40;85.20;;;;;;5034842;28;20042;-72
2022/08/03 12:07:28;;;;;;;7.93;1.90;;;26.50;84.90;;;;;;5034541;28;20483;-75
2022/08/03 12:10:18;;;;;;;11.85;1.70;;;26.70;84.90;;;;;;5034714;28;20034;-80
2022/08/03 12:12:59;;;;;;;11.48;1.90;;;26.80;84.00;;;;;;5034678;28;20050;-77
2022/08/03 12:15:39;;;;;;;9.55;1.75;;;26.80;83.20;;;;;;5016472;28;20380;-80
2022/08/03 12:18:17;;;;;;;7.70;1.67;;;27.00;83.60;;;;;;5002036;28;20472;-77
2022/08/03 12:20:49;;;;;;;9.30;1.40;;;27.00;83.00;;;;;;5035019;28;20060;-77
2022/08/03 12:23:18;;;;;;;13.57;1.98;;;27.00;83.40;;;;;;5017593;28;20045;-78
2022/08/03 12:25:46;;;;;;;8.68;1.70;;;27.00;83.60;;;;;;5034893;28;20045;-77
2022/08/03 12:28:22;;;;;;;9.18;1.85;;;27.10;82.60;;;;;;5034115;28;20045;-77
2022/08/03 12:31:09;;;;;;;8.50;1.30;;;27.20;82.80;;;;;;5019807;28;20044;-74
2022/08/03 12:34:05;;;;;;;6.40;1.45;;;27.40;81.70;;;;;;5018328;28;20064;-72
2022/08/03 12:36:34;;;;;;;7.63;1.60;;;27.50;81.20;;;;;;5035097;28;20064;-74
2022/08/03 12:39:08;;;;;;;6.05;1.40;;;27.80;81.60;;;;;;5034930;28;20049;-73
2022/08/03 12:41:38;;;;;;;7.60;1.63;;;28.00;80.90;;;;;;5016430;28;20054;-75
2022/08/03 12:44:09;;;;;;;9.25;1.40;;;28.00;80.40;;;;;;5034635;28;20057;-79
2022/08/03 12:46:40;;;;;;;11.90;1.95;;;28.00;79.80;;;;;;5001716;28;20048;-75
2022/08/03 12:49:17;;;;;;;10.43;1.52;;;27.90;80.20;;;;;;5012870;28;20064;-76
2022/08/03 12:51:48;;;;;;;11.55;1.55;;;27.90;80.10;;;;;;5039249;28;20565;-76
2022/08/03 12:54:20;;;;;;;7.18;1.67;;;27.80;78.40;;;;;;5041603;28;20051;-77
2022/08/03 12:56:59;;;;;;;9.75;1.42;;;27.70;79.10;;;;;;5056584;28;20065;-75
2022/08/03 12:59:34;;;;;;;7.40;1.60;;;28.30;79.80;;;;;;5034374;28;20045;-73
2022/08/03 13:02:16;;;;;;;9.65;1.63;;;27.80;78.70;;;;;;5032642;28;20041;-74
2022/08/03 13:04:45;;;;;;;10.40;1.40;;;27.80;78.20;;;;;;5034250;28;20042;-75
2022/08/03 13:07:14;;;;;;;9.55;1.70;;;28.00;78.40;;;;;;5034489;28;20138;-74
2022/08/03 13:09:44;;;;;;;12.75;1.70;;;28.20;78.00;;;;;;5035902;28;20045;-73
2022/08/03 13:12:13;;;;;;;9.32;1.70;;;28.30;77.30;;;;;;5004652;28;20049;-75
2022/08/03 13:14:42;;;;;;;12.90;1.45;;;28.20;76.50;;;;;;5035327;28;20494;-75
2022/08/03 13:17:11;;;;;;;10.40;1.80;;;28.30;77.10;;;;;;5038109;28;20042;-77
2022/08/03 13:19:39;;;;;;;13.20;1.80;;;28.40;77.10;;;;;;5037886;28;20056;-73
2022/08/03 13:22:29;;;;;;;10.85;1.52;;;28.40;76.40;;;;;;5039356;28;20060;-73
2022/08/03 13:24:59;;;;;;;9.32;1.63;;;28.40;75.40;;;;;;5057986;28;20041;-74
2022/08/03 13:27:28;;;;;;;9.52;1.70;;;28.40;76.10;;;;;;5056543;28;20049;-76